createdAt,value
2018-07-07T00:00:02.180Z,11.97
2018-07-07T00:02:30.236Z,12.15
2018-07-07T00:04:58.282Z,11.35
2018-07-07T00:07:26.348Z,11.40
2018-07-07T00:09:54.392Z,11.10
2018-07-07T00:12:22.446Z,11.78
2018-07-07T00:14:50.496Z,11.00
2018-07-07T00:17:18.549Z,11.30
2018-07-07T00:19:46.601Z,11.85
2018-07-07T00:22:14.665Z,12.28
2018-07-07T00:24:42.716Z,12.73
2018-07-07T00:27:10.764Z,12.82
2018-07-07T00:29:38.817Z,11.20
2018-07-07T00:32:07.095Z,10.38
2018-07-07T00:34:35.209Z,11.95
2018-07-07T00:37:03.257Z,10.88
2018-07-07T00:39:31.317Z,11.63
2018-07-07T00:41:59.356Z,11.38
2018-07-07T00:44:27.426Z,11.10
2018-07-07T00:46:55.468Z,13.18
2018-07-07T00:49:23.508Z,13.35
2018-07-07T00:51:51.548Z,11.48
2018-07-07T00:54:19.790Z,11.65
2018-07-07T00:56:47.837Z,11.35
2018-07-07T00:59:15.916Z,11.40
2018-07-07T01:01:43.965Z,10.65
2018-07-07T01:04:12.028Z,10.72
2018-07-07T01:06:40.073Z,10.68
2018-07-07T01:09:08.121Z,10.03
2018-07-07T01:11:36.193Z,11.40
2018-07-07T01:14:04.273Z,11.00
2018-07-07T01:16:32.340Z,11.50
2018-07-07T01:19:00.408Z,11.60
2018-07-07T01:21:28.468Z,11.70
2018-07-07T01:23:56.544Z,11.97
2018-07-07T01:26:24.609Z,11.28
2018-07-07T01:28:52.676Z,11.78
2018-07-07T01:31:20.739Z,12.03
2018-07-07T01:33:48.812Z,11.33
2018-07-07T01:36:17.017Z,11.03
2018-07-07T01:38:45.089Z,11.15
2018-07-07T01:41:13.152Z,12.05
2018-07-07T01:43:41.228Z,12.07
2018-07-07T01:46:09.288Z,11.18
2018-07-07T01:48:37.370Z,12.00
2018-07-07T01:51:05.428Z,11.53
2018-07-07T01:53:33.496Z,12.00
2018-07-07T01:56:01.556Z,11.10
2018-07-07T01:58:29.632Z,10.40
2018-07-07T02:00:57.480Z,10.63
2018-07-07T02:03:25.553Z,11.30
2018-07-07T02:05:53.632Z,10.82
2018-07-07T02:08:21.725Z,12.20
2018-07-07T02:10:49.800Z,11.15
2018-07-07T02:13:17.853Z,10.85
2018-07-07T02:15:45.902Z,12.10
2018-07-07T02:18:13.940Z,12.23
2018-07-07T02:20:41.997Z,11.73
2018-07-07T02:23:10.046Z,11.55
2018-07-07T02:25:38.092Z,12.82
2018-07-07T02:28:06.361Z,11.25
2018-07-07T02:30:34.414Z,11.68
2018-07-07T02:33:02.454Z,12.50
2018-07-07T02:35:30.505Z,12.98
2018-07-07T02:37:58.545Z,12.43
2018-07-07T02:40:26.614Z,11.30
2018-07-07T02:42:54.653Z,11.60
2018-07-07T02:45:22.712Z,12.00
2018-07-07T02:47:50.805Z,11.73
2018-07-07T02:50:18.854Z,10.90
2018-07-07T02:52:46.935Z,10.25
2018-07-07T02:55:14.977Z,11.00
2018-07-07T02:57:43.198Z,10.48
2018-07-07T03:00:11.260Z,10.23
2018-07-07T03:02:39.305Z,11.73
2018-07-07T03:05:07.367Z,11.83
2018-07-07T03:07:35.405Z,11.90
2018-07-07T03:10:04.472Z,11.88
2018-07-07T03:12:32.523Z,12.10
2018-07-07T03:15:00.665Z,11.65
2018-07-07T03:17:28.504Z,11.90
2018-07-07T03:19:56.556Z,12.25
2018-07-07T03:22:24.593Z,11.25
2018-07-07T03:24:52.645Z,12.60
2018-07-07T03:27:20.680Z,11.65
2018-07-07T03:29:48.728Z,12.68
2018-07-07T03:32:16.777Z,11.65
2018-07-07T03:34:44.829Z,12.03
2018-07-07T03:37:12.872Z,12.30
2018-07-07T03:39:40.937Z,11.78
2018-07-07T03:42:08.989Z,11.55
2018-07-07T03:44:36.916Z,11.73
2018-07-07T03:47:05.084Z,11.95
2018-07-07T03:49:33.143Z,11.68
2018-07-07T03:52:01.180Z,12.60
2018-07-07T03:54:29.242Z,13.50
2018-07-07T03:56:57.552Z,12.60
2018-07-07T03:59:25.602Z,12.28
2018-07-07T04:01:53.644Z,11.93
2018-07-07T04:04:21.692Z,12.43
2018-07-07T04:06:49.824Z,13.85
2018-07-07T04:09:17.879Z,11.78
2018-07-07T04:11:45.952Z,11.45
2018-07-07T04:14:14.022Z,12.33
2018-07-07T04:16:42.080Z,11.05
2018-07-07T04:19:10.160Z,12.53
2018-07-07T04:21:38.234Z,11.08
2018-07-07T04:24:06.301Z,11.15
2018-07-07T04:26:34.368Z,11.85
2018-07-07T04:29:02.429Z,11.00
2018-07-07T04:31:30.501Z,12.45
2018-07-07T04:33:58.557Z,11.73
2018-07-07T04:36:26.625Z,11.05
2018-07-07T04:38:54.693Z,10.55
2018-07-07T04:41:22.761Z,12.20
2018-07-07T04:43:50.828Z,11.50
2018-07-07T04:46:18.894Z,11.60
2018-07-07T04:48:46.956Z,11.35
2018-07-07T04:51:15.030Z,12.50
2018-07-07T04:53:43.089Z,11.93
2018-07-07T04:56:11.161Z,11.63
2018-07-07T04:58:39.229Z,11.08
2018-07-07T05:01:07.292Z,12.10
2018-07-07T05:03:35.356Z,11.90
2018-07-07T05:06:03.416Z,11.48
2018-07-07T05:08:31.472Z,11.60
2018-07-07T05:10:59.533Z,11.35
2018-07-07T05:13:27.572Z,11.50
2018-07-07T05:15:55.620Z,10.60
2018-07-07T05:18:23.656Z,11.65
2018-07-07T05:20:51.733Z,11.33
2018-07-07T05:23:19.852Z,12.60
2018-07-07T05:25:47.926Z,12.13
2018-07-07T05:28:15.976Z,11.35
2018-07-07T05:30:44.034Z,11.48
2018-07-07T05:33:12.075Z,10.80
2018-07-07T05:35:40.150Z,11.33
2018-07-07T05:38:08.183Z,9.93
2018-07-07T05:40:36.232Z,9.25
2018-07-07T05:43:04.320Z,9.78
2018-07-07T05:45:32.395Z,10.20
2018-07-07T05:48:00.423Z,8.73
2018-07-07T05:50:28.632Z,9.85
2018-07-07T05:52:56.685Z,10.25
2018-07-07T05:55:24.736Z,9.73
2018-07-07T05:57:52.780Z,9.93
2018-07-07T06:00:20.837Z,8.88
2018-07-07T06:02:48.872Z,8.78
2018-07-07T06:05:16.924Z,8.80
2018-07-07T06:07:44.959Z,8.80
2018-07-07T06:10:13.016Z,8.55
2018-07-07T06:12:41.080Z,8.65
2018-07-07T06:15:09.565Z,8.15
2018-07-07T06:17:37.632Z,8.45
2018-07-07T06:20:05.696Z,8.43
2018-07-07T06:22:33.765Z,8.28
2018-07-07T06:25:01.828Z,8.53
2018-07-07T06:27:29.889Z,8.18
2018-07-07T06:29:58.272Z,8.20
2018-07-07T06:32:26.560Z,8.75
2018-07-07T06:34:54.616Z,7.40
2018-07-07T06:37:23.200Z,7.37
2018-07-07T06:39:51.190Z,7.55
2018-07-07T06:42:19.253Z,7.67
2018-07-07T06:44:47.307Z,7.00
2018-07-07T06:47:15.368Z,7.60
2018-07-07T06:49:43.428Z,7.58
2018-07-07T06:52:11.504Z,6.55
2018-07-07T06:54:39.560Z,6.42
2018-07-07T06:57:07.624Z,6.97
2018-07-07T06:59:35.732Z,6.37
2018-07-07T07:02:03.746Z,6.53
2018-07-07T07:04:31.812Z,6.35
2018-07-07T07:06:59.877Z,6.12
2018-07-07T07:09:28.235Z,5.67
2018-07-07T07:11:56.323Z,6.50
2018-07-07T07:14:25.224Z,5.45
2018-07-07T07:16:53.276Z,5.12
2018-07-07T07:19:21.308Z,6.05
2018-07-07T07:21:49.348Z,5.42
2018-07-07T07:24:17.455Z,5.08
2018-07-07T07:26:45.476Z,4.65
2018-07-07T07:29:13.517Z,4.55
2018-07-07T07:31:41.576Z,4.42
2018-07-07T07:34:09.608Z,4.67
2018-07-07T07:36:40.444Z,4.50
2018-07-07T07:39:08.484Z,4.28
2018-07-07T07:41:36.536Z,4.25
2018-07-07T07:44:05.180Z,4.62
2018-07-07T07:46:33.407Z,3.85
2018-07-07T07:49:01.456Z,4.05
2018-07-07T07:51:29.626Z,3.47
2018-07-07T07:53:58.172Z,3.72
2018-07-07T07:56:27.184Z,3.70
2018-07-07T07:58:55.862Z,3.40
2018-07-07T08:01:24.065Z,3.37
2018-07-07T08:03:52.120Z,3.35
2018-07-07T08:06:20.233Z,3.85
2018-07-07T08:08:48.276Z,3.60
2018-07-07T08:11:16.328Z,3.70
2018-07-07T08:13:44.370Z,3.50
2018-07-07T08:16:12.581Z,4.00
2018-07-07T08:18:40.643Z,3.92
2018-07-07T08:21:08.672Z,3.72
2018-07-07T08:23:36.732Z,3.87
2018-07-07T08:26:05.057Z,3.20
2018-07-07T08:28:33.154Z,3.30
2018-07-07T08:31:01.153Z,3.30
2018-07-07T08:33:29.190Z,3.30
2018-07-07T08:35:57.232Z,3.80
2018-07-07T08:38:25.276Z,3.37
2018-07-07T08:40:53.348Z,3.30
2018-07-07T08:43:21.716Z,4.08
2018-07-07T08:45:49.752Z,2.90
2018-07-07T08:48:17.801Z,3.90
2018-07-07T08:50:46.165Z,3.37
2018-07-07T08:53:14.670Z,3.25
2018-07-07T08:55:42.725Z,4.00
2018-07-07T08:58:10.769Z,3.00
2018-07-07T09:00:38.808Z,3.55
2018-07-07T09:03:07.521Z,3.33
2018-07-07T09:05:35.560Z,3.60
2018-07-07T09:08:04.100Z,3.33
2018-07-07T09:10:32.380Z,3.05
2018-07-07T09:13:00.575Z,3.35
2018-07-07T09:15:28.960Z,3.60
2018-07-07T09:17:57.020Z,3.60
2018-07-07T09:20:25.084Z,3.30
2018-07-07T09:22:53.157Z,3.00
2018-07-07T09:25:21.217Z,3.80
2018-07-07T09:27:49.284Z,3.20
2018-07-07T09:30:17.344Z,3.55
2018-07-07T09:32:45.408Z,3.85
2018-07-07T09:35:13.522Z,3.58
2018-07-07T09:37:41.565Z,3.33
2018-07-07T09:40:09.628Z,3.90
2018-07-07T09:42:37.712Z,4.05
2018-07-07T09:45:05.804Z,3.30
2018-07-07T09:47:33.876Z,3.40
2018-07-07T09:50:01.941Z,4.03
2018-07-07T09:52:30.017Z,5.70
2018-07-07T09:54:58.079Z,3.90
2018-07-07T09:57:26.144Z,4.47
2018-07-07T09:59:54.208Z,3.75
2018-07-07T10:02:22.269Z,3.83
2018-07-07T10:04:50.335Z,4.10
2018-07-07T10:07:18.408Z,5.25
2018-07-07T10:09:46.457Z,5.40
2018-07-07T10:12:14.536Z,5.07
2018-07-07T10:14:42.605Z,5.30
2018-07-07T10:17:10.676Z,5.23
2018-07-07T10:19:38.737Z,4.80
2018-07-07T10:22:06.932Z,5.23
2018-07-07T10:24:34.987Z,4.80
2018-07-07T10:27:03.056Z,4.23
2018-07-07T10:29:31.128Z,4.87
2018-07-07T10:31:59.200Z,5.20
2018-07-07T10:34:27.300Z,4.77
2018-07-07T10:36:55.364Z,4.13
2018-07-07T10:39:23.424Z,4.60
2018-07-07T10:41:51.476Z,5.00
2018-07-07T10:44:19.549Z,4.43
2018-07-07T10:46:47.592Z,4.80
2018-07-07T10:49:15.657Z,4.73
2018-07-07T10:51:43.740Z,4.20
2018-07-07T10:54:11.796Z,4.77
2018-07-07T10:56:39.855Z,5.17
2018-07-07T10:59:07.924Z,4.30
2018-07-07T11:01:35.981Z,4.40
2018-07-07T11:04:04.053Z,4.70
2018-07-07T11:06:32.226Z,5.03
2018-07-07T11:09:00.304Z,5.70
2018-07-07T11:11:28.364Z,5.77
2018-07-07T11:13:56.505Z,4.37
2018-07-07T11:16:24.542Z,4.50
2018-07-07T11:18:52.610Z,4.50
2018-07-07T11:21:20.717Z,5.17
2018-07-07T11:23:48.776Z,5.20
2018-07-07T11:26:16.831Z,4.83
2018-07-07T11:28:44.898Z,4.77
2018-07-07T11:31:12.951Z,4.83
2018-07-07T11:33:41.025Z,5.60
2018-07-07T11:36:09.090Z,4.70
2018-07-07T11:38:37.247Z,5.43
2018-07-07T11:41:05.705Z,5.20
2018-07-07T11:43:33.777Z,5.07
2018-07-07T11:46:01.837Z,5.60
2018-07-07T11:48:29.966Z,5.27
2018-07-07T11:50:58.014Z,5.20
2018-07-07T11:53:26.085Z,5.33
2018-07-07T11:55:54.145Z,4.80
2018-07-07T11:58:22.217Z,5.10
2018-07-07T12:00:50.272Z,5.03
2018-07-07T12:03:18.402Z,4.30
2018-07-07T12:05:46.448Z,5.00
2018-07-07T12:08:14.512Z,4.43
2018-07-07T12:10:42.593Z,4.57
2018-07-07T12:13:10.683Z,5.30
2018-07-07T12:15:38.740Z,4.37
2018-07-07T12:18:06.808Z,4.90
2018-07-07T12:20:35.109Z,4.50
2018-07-07T12:23:03.165Z,4.77
2018-07-07T12:25:31.217Z,4.93
2018-07-07T12:27:59.284Z,4.37
2018-07-07T12:30:27.439Z,4.53
2018-07-07T12:32:55.485Z,4.37
2018-07-07T12:35:23.532Z,4.90
2018-07-07T12:37:51.592Z,4.80
2018-07-07T12:40:19.650Z,4.90
2018-07-07T12:42:47.764Z,5.20
2018-07-07T12:45:15.826Z,4.57
2018-07-07T12:47:43.891Z,4.27
2018-07-07T12:50:11.953Z,4.27
2018-07-07T12:52:40.009Z,4.53
2018-07-07T12:55:08.073Z,4.63
2018-07-07T12:57:36.696Z,4.20
2018-07-07T13:00:04.956Z,5.63
2018-07-07T13:02:33.116Z,4.60
2018-07-07T13:05:01.176Z,5.10
2018-07-07T13:07:29.229Z,4.47
2018-07-07T13:09:57.292Z,6.30
2018-07-07T13:12:25.361Z,5.20
2018-07-07T13:14:53.421Z,5.10
2018-07-07T13:17:21.477Z,5.70
2018-07-07T13:19:49.541Z,6.00
2018-07-07T13:22:17.832Z,5.12
2018-07-07T13:24:45.872Z,5.10
2018-07-07T13:27:13.924Z,5.10
2018-07-07T13:29:41.995Z,4.70
2018-07-07T13:32:10.233Z,4.77
2018-07-07T13:34:39.085Z,4.93
2018-07-07T13:37:07.268Z,5.00
2018-07-07T13:39:38.228Z,4.80
2018-07-07T13:42:07.401Z,4.90
2018-07-07T13:44:35.251Z,4.70
2018-07-07T13:47:03.313Z,5.20
2018-07-07T13:49:31.359Z,5.03
2018-07-07T13:51:59.393Z,4.70
2018-07-07T13:54:27.448Z,5.33
2018-07-07T13:56:55.488Z,6.17
2018-07-07T13:59:23.556Z,5.77
2018-07-07T14:01:51.596Z,4.80
2018-07-07T14:04:19.960Z,4.60
2018-07-07T14:06:47.992Z,4.93
2018-07-07T14:09:16.034Z,5.53
2018-07-07T14:11:44.132Z,4.72
2018-07-07T14:14:12.212Z,5.12
2018-07-07T14:16:40.256Z,5.87
2018-07-07T14:19:08.309Z,5.33
2018-07-07T14:21:36.484Z,4.83
2018-07-07T14:24:04.560Z,5.00
2018-07-07T14:26:32.676Z,4.55
2018-07-07T14:29:00.736Z,5.10
2018-07-07T14:31:28.784Z,4.65
2018-07-07T14:33:57.008Z,4.72
2018-07-07T14:36:25.137Z,5.28
2018-07-07T14:38:53.253Z,4.72
2018-07-07T14:41:22.493Z,5.05
2018-07-07T14:43:54.900Z,4.50
2018-07-07T14:46:23.475Z,4.62
2018-07-07T14:48:51.869Z,4.45
2018-07-07T14:51:19.959Z,5.00
2018-07-07T14:53:48.136Z,4.47
2018-07-07T14:56:17.456Z,4.60
2018-07-07T14:58:45.532Z,4.85
2018-07-07T15:01:13.673Z,5.00
2018-07-07T15:03:42.116Z,4.65
2018-07-07T15:06:10.312Z,5.25
2018-07-07T15:08:38.384Z,5.00
2018-07-07T15:11:07.032Z,5.28
2018-07-07T15:13:35.081Z,4.50
2018-07-07T15:16:03.267Z,5.75
2018-07-07T15:18:31.853Z,4.12
2018-07-07T15:20:59.964Z,4.30
2018-07-07T15:23:28.000Z,4.67
2018-07-07T15:25:56.060Z,4.17
2018-07-07T15:28:24.109Z,7.30
2018-07-07T15:30:52.172Z,7.00
2018-07-07T15:33:20.248Z,7.80
2018-07-07T15:35:48.456Z,10.08
2018-07-07T15:38:16.496Z,6.72
2018-07-07T15:40:44.572Z,5.70
2018-07-07T15:43:12.624Z,5.25
2018-07-07T15:45:40.673Z,4.92
2018-07-07T15:48:08.876Z,5.03
2018-07-07T15:50:37.069Z,4.65
2018-07-07T15:53:05.180Z,4.60
2018-07-07T15:55:33.233Z,3.30
2018-07-07T15:58:01.292Z,4.47
2018-07-07T16:00:29.340Z,3.92
2018-07-07T16:02:57.684Z,3.55
2018-07-07T16:05:25.773Z,3.72
2018-07-07T16:07:53.828Z,3.45
2018-07-07T16:10:22.148Z,3.80
2018-07-07T16:12:50.221Z,3.22
2018-07-07T16:15:18.348Z,3.40
2018-07-07T16:17:46.341Z,3.35
2018-07-07T16:20:14.413Z,3.65
2018-07-07T16:22:42.472Z,3.42
2018-07-07T16:25:10.650Z,3.35
2018-07-07T16:27:38.676Z,2.72
2018-07-07T16:30:06.768Z,3.25
2018-07-07T16:32:34.844Z,3.77
2018-07-07T16:35:02.981Z,2.77
2018-07-07T16:37:31.021Z,3.22
2018-07-07T16:39:59.100Z,3.37
2018-07-07T16:42:27.145Z,3.17
2018-07-07T16:44:55.213Z,3.47
2018-07-07T16:47:23.274Z,3.30
2018-07-07T16:49:51.348Z,3.33
2018-07-07T16:52:19.416Z,3.30
2018-07-07T16:54:47.488Z,2.95
2018-07-07T16:57:16.577Z,2.80
2018-07-07T16:59:44.760Z,2.70
2018-07-07T17:02:13.060Z,2.70
2018-07-07T17:04:41.140Z,2.85
2018-07-07T17:07:09.217Z,2.85
2018-07-07T17:09:37.317Z,2.65
2018-07-07T17:12:05.595Z,2.40
2018-07-07T17:14:33.858Z,3.02
2018-07-07T17:17:01.913Z,2.83
2018-07-07T17:19:29.957Z,2.92
2018-07-07T17:21:58.007Z,2.60
2018-07-07T17:24:28.537Z,2.85
2018-07-07T17:26:56.593Z,3.22
2018-07-07T17:29:24.632Z,3.58
2018-07-07T17:31:52.685Z,2.70
2018-07-07T17:34:20.728Z,3.08
2018-07-07T17:36:48.779Z,2.83
2018-07-07T17:39:16.820Z,2.58
2018-07-07T17:41:44.916Z,2.75
2018-07-07T17:44:12.776Z,2.60
2018-07-07T17:46:40.828Z,2.80
2018-07-07T17:49:08.868Z,3.08
2018-07-07T17:51:36.708Z,3.30
2018-07-07T17:54:04.764Z,2.80
2018-07-07T17:56:32.812Z,3.05
2018-07-07T17:59:00.963Z,2.75
2018-07-07T18:01:29.033Z,2.60
2018-07-07T18:03:57.222Z,2.60
2018-07-07T18:06:25.259Z,2.42
2018-07-07T18:08:53.293Z,2.10
2018-07-07T18:11:21.349Z,2.50
2018-07-07T18:13:49.390Z,2.45
2018-07-07T18:16:17.434Z,3.10
2018-07-07T18:18:45.468Z,2.30
2018-07-07T18:21:13.624Z,2.55
2018-07-07T18:23:41.653Z,2.60
2018-07-07T18:26:09.696Z,2.27
2018-07-07T18:28:37.746Z,2.17
2018-07-07T18:31:05.826Z,2.40
2018-07-07T18:33:33.860Z,2.25
2018-07-07T18:36:01.904Z,2.35
2018-07-07T18:38:29.946Z,2.50
2018-07-07T18:40:57.984Z,2.72
2018-07-07T18:43:26.185Z,2.30
2018-07-07T18:45:54.238Z,2.80
2018-07-07T18:48:22.280Z,2.40
2018-07-07T18:50:50.377Z,2.42
2018-07-07T18:53:18.410Z,2.02
2018-07-07T18:55:46.444Z,2.30
2018-07-07T18:58:14.484Z,2.30
2018-07-07T19:00:42.557Z,2.50
2018-07-07T19:03:10.604Z,2.37
2018-07-07T19:05:38.640Z,2.55
2018-07-07T19:08:06.689Z,2.75
2018-07-07T19:10:34.740Z,2.10
2018-07-07T19:13:02.801Z,2.35
2018-07-07T19:15:30.919Z,2.22
2018-07-07T19:17:58.916Z,2.10
2018-07-07T19:20:32.380Z,2.92
2018-07-07T19:23:06.001Z,2.20
2018-07-07T19:25:39.568Z,2.08
2018-07-07T19:28:07.601Z,2.70
2018-07-07T19:30:35.652Z,2.35
2018-07-07T19:33:09.252Z,2.25
2018-07-07T19:35:42.949Z,2.10
2018-07-07T19:38:10.997Z,2.20
2018-07-07T19:40:39.065Z,2.70
2018-07-07T19:43:07.112Z,2.35
2018-07-07T19:45:35.168Z,2.70
2018-07-07T19:48:03.224Z,2.50
2018-07-07T19:50:31.276Z,2.35
2018-07-07T19:52:59.336Z,2.30
2018-07-07T19:55:27.851Z,2.30
2018-07-07T19:57:55.888Z,2.80
2018-07-07T20:00:23.940Z,2.58
2018-07-07T20:02:52.006Z,2.98
2018-07-07T20:05:20.060Z,2.77
2018-07-07T20:07:48.160Z,2.67
2018-07-07T20:10:16.183Z,3.08
2018-07-07T20:12:44.292Z,2.62
2018-07-07T20:15:12.345Z,2.80
2018-07-07T20:17:53.676Z,2.70
2018-07-07T20:20:33.992Z,2.58
2018-07-07T20:23:03.068Z,2.83
2018-07-07T20:25:31.126Z,2.50
2018-07-07T20:28:04.629Z,2.90
2018-07-07T20:30:33.001Z,2.58
2018-07-07T20:33:01.060Z,2.70
2018-07-07T20:35:29.275Z,2.95
2018-07-07T20:37:57.461Z,2.85
2018-07-07T20:40:25.608Z,3.27
2018-07-07T20:42:53.668Z,3.10
2018-07-07T20:45:21.780Z,2.85
2018-07-07T20:47:56.274Z,2.95
2018-07-07T20:50:25.713Z,2.83
2018-07-07T20:52:53.772Z,2.60
2018-07-07T20:55:21.926Z,2.95
2018-07-07T20:57:49.975Z,3.12
2018-07-07T21:00:18.056Z,3.30
2018-07-07T21:02:46.140Z,3.08
2018-07-07T21:05:14.226Z,3.60
2018-07-07T21:07:42.317Z,3.77
2018-07-07T21:10:10.425Z,4.00
2018-07-07T21:12:38.509Z,4.22
2018-07-07T21:15:06.689Z,4.25
2018-07-07T21:17:34.746Z,3.50
2018-07-07T21:20:02.808Z,4.80
2018-07-07T21:22:30.864Z,4.05
2018-07-07T21:24:58.929Z,4.58
2018-07-07T21:27:26.984Z,4.35
2018-07-07T21:29:55.068Z,3.50
2018-07-07T21:32:23.212Z,3.12
2018-07-07T21:34:51.277Z,2.90
2018-07-07T21:37:19.337Z,3.60
2018-07-07T21:39:47.405Z,3.45
2018-07-07T21:42:15.463Z,3.30
2018-07-07T21:44:43.600Z,3.15
2018-07-07T21:47:11.660Z,3.55
2018-07-07T21:49:39.801Z,3.60
2018-07-07T21:52:07.835Z,3.33
2018-07-07T21:54:35.945Z,3.00
2018-07-07T21:57:03.999Z,3.27
2018-07-07T21:59:32.053Z,3.70
2018-07-07T22:02:05.546Z,3.45
2018-07-07T22:04:39.168Z,3.20
2018-07-07T22:07:13.229Z,3.20
2018-07-07T22:09:42.204Z,3.00
2018-07-07T22:12:10.280Z,3.55
2018-07-07T22:14:38.341Z,3.40
2018-07-07T22:17:06.421Z,3.05
2018-07-07T22:19:34.493Z,3.00
2018-07-07T22:22:06.416Z,3.27
2018-07-07T22:24:34.605Z,2.98
2018-07-07T22:27:03.921Z,3.58
2018-07-07T22:29:32.000Z,3.87
2018-07-07T22:32:01.311Z,3.33
2018-07-07T22:34:32.787Z,4.53
2018-07-07T22:37:00.964Z,4.67
2018-07-07T22:39:29.152Z,3.65
2018-07-07T22:42:00.321Z,4.10
2018-07-07T22:44:28.417Z,3.47
2018-07-07T22:46:56.677Z,3.90
2018-07-07T22:49:25.686Z,3.30
2018-07-07T22:51:53.973Z,3.00
2018-07-07T22:54:22.036Z,4.25
2018-07-07T22:56:50.130Z,3.87
2018-07-07T22:59:18.184Z,3.60
2018-07-07T23:01:46.036Z,3.60
2018-07-07T23:04:14.112Z,3.35
2018-07-07T23:06:43.301Z,3.35
2018-07-07T23:09:12.517Z,4.55
2018-07-07T23:11:40.614Z,3.30
2018-07-07T23:14:08.789Z,3.35
2018-07-07T23:16:36.854Z,3.72
2018-07-07T23:19:05.989Z,3.70
2018-07-07T23:21:34.277Z,3.80
2018-07-07T23:24:02.703Z,3.15
2018-07-07T23:26:31.157Z,3.30
2018-07-07T23:29:00.068Z,3.10
2018-07-07T23:31:28.120Z,3.58
2018-07-07T23:33:56.181Z,3.42
2018-07-07T23:36:24.240Z,3.47
2018-07-07T23:38:52.312Z,3.95
2018-07-07T23:41:20.380Z,5.15
2018-07-07T23:43:48.490Z,5.97
2018-07-07T23:46:16.517Z,4.50
2018-07-07T23:48:44.577Z,4.83
2018-07-07T23:51:12.645Z,4.20
2018-07-07T23:53:40.807Z,4.22
2018-07-07T23:56:09.207Z,4.08
2018-07-07T23:58:37.344Z,4.40
